createdAt,value
2017-11-18T00:00:13.421Z,3.42
2017-11-18T00:00:47.892Z,3.65
2017-11-18T00:01:22.323Z,3.30
2017-11-18T00:01:57.273Z,3.08
2017-11-18T00:02:32.023Z,3.08
2017-11-18T00:03:06.595Z,2.90
2017-11-18T00:03:41.355Z,3.00
2017-11-18T00:04:16.103Z,2.87
2017-11-18T00:04:50.863Z,3.17
2017-11-18T00:05:25.618Z,2.78
2017-11-18T00:06:00.407Z,3.95
2017-11-18T00:06:35.172Z,3.20
2017-11-18T00:07:09.962Z,3.28
2017-11-18T00:07:44.736Z,3.40
2017-11-18T00:08:19.505Z,4.25
2017-11-18T00:08:54.283Z,2.83
2017-11-18T00:09:29.070Z,2.80
2017-11-18T00:10:03.826Z,3.42
2017-11-18T00:10:38.596Z,2.85
2017-11-18T00:11:13.384Z,3.20
2017-11-18T00:11:48.146Z,3.12
2017-11-18T00:12:22.894Z,2.67
2017-11-18T00:12:57.656Z,3.40
2017-11-18T00:13:32.427Z,3.45
2017-11-18T00:14:07.181Z,3.33
2017-11-18T00:14:41.935Z,2.95
2017-11-18T00:15:16.686Z,3.40
2017-11-18T00:15:51.461Z,3.05
2017-11-18T00:16:26.244Z,3.20
2017-11-18T00:17:01.016Z,3.37
2017-11-18T00:17:35.779Z,3.37
2017-11-18T00:18:10.538Z,3.40
2017-11-18T00:18:45.304Z,3.20
2017-11-18T00:19:20.069Z,3.60
2017-11-18T00:19:54.841Z,3.00
2017-11-18T00:20:29.597Z,3.70
2017-11-18T00:21:04.405Z,3.72
2017-11-18T00:21:39.273Z,3.17
2017-11-18T00:22:14.075Z,3.10
2017-11-18T00:22:48.836Z,2.58
2017-11-18T00:23:23.590Z,3.30
2017-11-18T00:23:58.363Z,2.58
2017-11-18T00:24:33.122Z,2.80
2017-11-18T00:25:07.963Z,2.95
2017-11-18T00:25:42.722Z,3.05
2017-11-18T00:26:17.490Z,3.60
2017-11-18T00:26:52.297Z,3.55
2017-11-18T00:27:27.059Z,2.83
2017-11-18T00:28:01.817Z,2.72
2017-11-18T00:28:36.594Z,3.22
2017-11-18T00:29:11.374Z,3.25
2017-11-18T00:29:46.140Z,2.90
2017-11-18T00:30:20.894Z,2.65
2017-11-18T00:30:55.675Z,3.10
2017-11-18T00:31:30.446Z,3.22
2017-11-18T00:32:05.222Z,3.00
2017-11-18T00:32:39.996Z,3.17
2017-11-18T00:33:14.764Z,3.00
2017-11-18T00:33:49.529Z,3.65
2017-11-18T00:34:24.282Z,2.80
2017-11-18T00:34:59.039Z,2.95
2017-11-18T00:35:33.812Z,2.85
2017-11-18T00:36:08.601Z,2.70
2017-11-18T00:36:43.362Z,3.22
2017-11-18T00:37:18.156Z,3.10
2017-11-18T00:37:52.906Z,2.75
2017-11-18T00:38:27.666Z,2.70
2017-11-18T00:39:02.238Z,3.20
2017-11-18T00:39:36.988Z,3.08
2017-11-18T00:40:11.765Z,3.30
2017-11-18T00:40:46.529Z,3.15
2017-11-18T00:41:21.299Z,2.87
2017-11-18T00:41:56.068Z,3.00
2017-11-18T00:42:30.873Z,2.70
2017-11-18T00:43:05.635Z,2.85
2017-11-18T00:43:40.407Z,3.10
2017-11-18T00:44:15.171Z,3.20
2017-11-18T00:44:49.976Z,3.08
2017-11-18T00:45:24.766Z,2.80
2017-11-18T00:45:59.543Z,2.90
2017-11-18T00:46:33.966Z,2.80
2017-11-18T00:47:08.781Z,3.12
2017-11-18T00:47:43.558Z,2.80
2017-11-18T00:48:18.334Z,2.67
2017-11-18T00:48:53.111Z,2.65
2017-11-18T00:49:27.876Z,2.90
2017-11-18T00:50:02.642Z,3.22
2017-11-18T00:50:37.403Z,3.40
2017-11-18T00:51:12.167Z,3.22
2017-11-18T00:51:46.924Z,3.00
2017-11-18T00:52:21.681Z,3.55
2017-11-18T00:52:56.457Z,3.62
2017-11-18T00:53:31.211Z,3.40
2017-11-18T00:54:05.959Z,2.87
2017-11-18T00:54:40.826Z,2.67
2017-11-18T00:55:15.578Z,3.78
2017-11-18T00:55:50.365Z,3.70
2017-11-18T00:56:25.136Z,3.55
2017-11-18T00:56:59.913Z,3.12
2017-11-18T00:57:34.677Z,3.15
2017-11-18T00:58:09.466Z,3.40
2017-11-18T00:58:44.249Z,3.03
2017-11-18T00:59:19.008Z,3.17
2017-11-18T00:59:53.782Z,3.70
2017-11-18T01:00:28.524Z,3.58
2017-11-18T01:01:03.274Z,3.40
2017-11-18T01:01:38.037Z,2.83
2017-11-18T01:02:12.801Z,3.35
2017-11-18T01:02:47.576Z,3.37
2017-11-18T01:03:22.393Z,3.42
2017-11-18T01:03:57.165Z,3.15
2017-11-18T01:04:31.923Z,4.05
2017-11-18T01:05:06.683Z,3.20
2017-11-18T01:05:41.452Z,3.37
2017-11-18T01:06:16.210Z,2.50
2017-11-18T01:06:50.962Z,3.42
2017-11-18T01:07:25.750Z,3.12
2017-11-18T01:08:00.513Z,2.95
2017-11-18T01:08:35.281Z,3.10
2017-11-18T01:09:10.044Z,3.87
2017-11-18T01:09:44.805Z,3.40
2017-11-18T01:10:19.573Z,3.55
2017-11-18T01:10:54.324Z,3.30
2017-11-18T01:11:29.104Z,3.05
2017-11-18T01:12:03.853Z,2.97
2017-11-18T01:12:38.619Z,3.30
2017-11-18T01:13:13.392Z,2.83
2017-11-18T01:13:48.178Z,4.00
2017-11-18T01:14:22.926Z,3.70
2017-11-18T01:14:57.694Z,3.08
2017-11-18T01:15:32.498Z,3.45
2017-11-18T01:16:07.261Z,4.00
2017-11-18T01:16:42.044Z,3.25
2017-11-18T01:17:16.798Z,3.20
2017-11-18T01:17:51.579Z,3.33
2017-11-18T01:18:26.322Z,3.30
2017-11-18T01:19:01.118Z,3.55
2017-11-18T01:19:35.862Z,3.12
2017-11-18T01:20:10.614Z,2.80
2017-11-18T01:20:45.365Z,3.60
2017-11-18T01:21:20.110Z,3.30
2017-11-18T01:21:54.944Z,3.05
2017-11-18T01:22:29.725Z,3.33
2017-11-18T01:23:04.530Z,3.25
2017-11-18T01:23:39.280Z,3.20
2017-11-18T01:24:14.053Z,3.37
2017-11-18T01:24:48.814Z,3.28
2017-11-18T01:25:23.566Z,3.05
2017-11-18T01:25:58.331Z,4.00
2017-11-18T01:26:33.117Z,3.30
2017-11-18T01:27:07.862Z,3.12
2017-11-18T01:27:42.691Z,3.35
2017-11-18T01:28:17.457Z,3.35
2017-11-18T01:28:52.235Z,3.50
2017-11-18T01:29:27.037Z,3.70
2017-11-18T01:30:01.461Z,3.10
2017-11-18T01:30:36.213Z,2.95
2017-11-18T01:31:10.980Z,4.10
2017-11-18T01:31:45.782Z,3.47
2017-11-18T01:32:20.544Z,3.17
2017-11-18T01:32:55.331Z,4.10
2017-11-18T01:33:30.130Z,3.47
2017-11-18T01:34:05.092Z,3.70
2017-11-18T01:34:39.901Z,3.60
2017-11-18T01:35:14.688Z,3.58
2017-11-18T01:35:49.140Z,3.80
2017-11-18T01:36:23.909Z,3.47
2017-11-18T01:36:58.670Z,3.65
2017-11-18T01:37:33.426Z,3.25
2017-11-18T01:38:08.211Z,3.05
2017-11-18T01:38:42.991Z,3.35
2017-11-18T01:39:17.745Z,3.47
2017-11-18T01:39:52.541Z,3.45
2017-11-18T01:40:27.298Z,2.85
2017-11-18T01:41:02.058Z,3.22
2017-11-18T01:41:36.802Z,2.90
2017-11-18T01:42:11.567Z,3.80
2017-11-18T01:42:46.316Z,4.43
2017-11-18T01:43:21.071Z,3.25
2017-11-18T01:43:55.846Z,4.10
2017-11-18T01:44:30.602Z,3.05
2017-11-18T01:45:05.401Z,3.90
2017-11-18T01:45:40.162Z,3.62
2017-11-18T01:46:14.926Z,3.55
2017-11-18T01:46:49.699Z,3.15
2017-11-18T01:47:24.458Z,4.25
2017-11-18T01:47:59.271Z,3.00
2017-11-18T01:48:34.027Z,3.53
2017-11-18T01:49:08.782Z,3.62
2017-11-18T01:49:43.554Z,3.55
2017-11-18T01:50:18.334Z,3.08
2017-11-18T01:50:53.196Z,3.50
2017-11-18T01:51:27.951Z,3.22
2017-11-18T01:52:02.720Z,3.67
2017-11-18T01:52:37.484Z,4.00
2017-11-18T01:53:12.237Z,3.20
2017-11-18T01:53:47.024Z,3.20
2017-11-18T01:54:21.785Z,3.50
2017-11-18T01:54:56.548Z,3.37
2017-11-18T01:55:31.330Z,3.97
2017-11-18T01:56:06.082Z,3.08
2017-11-18T01:56:40.894Z,3.35
2017-11-18T01:57:15.686Z,2.78
2017-11-18T01:57:50.434Z,3.45
2017-11-18T01:58:24.876Z,3.62
2017-11-18T01:58:59.644Z,3.08
2017-11-18T01:59:34.407Z,3.28
2017-11-18T02:00:09.182Z,3.55
2017-11-18T02:00:43.978Z,3.30
2017-11-18T02:01:18.401Z,3.30
2017-11-18T02:01:53.165Z,3.45
2017-11-18T02:02:33.437Z,3.40
2017-11-18T02:03:08.225Z,3.20
2017-11-18T02:03:42.989Z,3.50
2017-11-18T02:04:17.425Z,3.30
2017-11-18T02:04:52.226Z,2.78
2017-11-18T02:05:26.974Z,3.37
2017-11-18T02:06:01.756Z,4.15
2017-11-18T02:06:36.512Z,3.22
2017-11-18T02:07:11.282Z,3.47
2017-11-18T02:07:45.709Z,3.20
2017-11-18T02:08:20.126Z,3.67
2017-11-18T02:08:54.909Z,3.12
2017-11-18T02:09:29.667Z,3.35
2017-11-18T02:10:04.114Z,3.83
2017-11-18T02:10:38.887Z,3.35
2017-11-18T02:11:13.679Z,4.03
2017-11-18T02:11:48.456Z,3.33
2017-11-18T02:12:22.881Z,3.35
2017-11-18T02:12:57.633Z,3.40
2017-11-18T02:13:32.410Z,3.05
2017-11-18T02:14:07.157Z,3.65
2017-11-18T02:14:41.914Z,3.85
2017-11-18T02:15:16.344Z,3.03
2017-11-18T02:15:51.102Z,4.30
2017-11-18T02:16:25.881Z,3.47
2017-11-18T02:17:00.685Z,3.17
2017-11-18T02:17:35.564Z,3.35
2017-11-18T02:18:09.981Z,3.37
2017-11-18T02:18:44.737Z,2.90
2017-11-18T02:19:19.163Z,3.22
2017-11-18T02:19:53.605Z,3.15
2017-11-18T02:20:28.047Z,4.10
2017-11-18T02:21:02.808Z,3.67
2017-11-18T02:21:37.265Z,3.58
2017-11-18T02:22:11.687Z,3.25
2017-11-18T02:22:46.116Z,3.42
2017-11-18T02:23:20.534Z,2.90
2017-11-18T02:23:55.010Z,3.70
2017-11-18T02:24:29.774Z,3.75
2017-11-18T02:25:04.218Z,2.70
2017-11-18T02:25:38.639Z,3.30
2017-11-18T02:26:13.410Z,3.72
2017-11-18T02:26:47.862Z,2.85
2017-11-18T02:27:22.294Z,3.03
2017-11-18T02:27:56.708Z,3.30
2017-11-18T02:28:31.137Z,3.33
2017-11-18T02:29:05.558Z,3.50
2017-11-18T02:29:40.300Z,3.72
2017-11-18T02:30:14.737Z,3.45
2017-11-18T02:30:49.168Z,3.20
2017-11-18T02:31:23.629Z,3.28
2017-11-18T02:31:58.098Z,3.42
2017-11-18T02:32:32.848Z,3.53
2017-11-18T02:33:07.278Z,3.85
2017-11-18T02:33:41.697Z,3.05
2017-11-18T02:34:16.130Z,3.08
2017-11-18T02:34:50.574Z,3.30
2017-11-18T02:35:25.036Z,3.55
2017-11-18T02:35:59.482Z,3.00
2017-11-18T02:36:34.235Z,3.47
2017-11-18T02:37:08.682Z,3.05
2017-11-18T02:37:43.111Z,3.28
2017-11-18T02:38:17.901Z,3.30
2017-11-18T02:38:52.741Z,3.47
2017-11-18T02:39:27.193Z,3.40
2017-11-18T02:40:01.629Z,3.30
2017-11-18T02:40:36.042Z,3.40
2017-11-18T02:41:10.472Z,3.58
2017-11-18T02:42:25.887Z,3.30
2017-11-18T02:43:00.354Z,2.97
2017-11-18T02:43:34.828Z,3.35
2017-11-18T02:44:09.265Z,3.67
2017-11-18T02:44:43.689Z,3.00
2017-11-18T02:45:18.219Z,2.75
2017-11-18T02:45:52.982Z,3.03
2017-11-18T02:46:27.748Z,3.10
2017-11-18T02:47:02.175Z,2.80
2017-11-18T02:47:36.685Z,3.03
2017-11-18T02:48:11.122Z,3.53
2017-11-18T02:48:45.574Z,2.85
2017-11-18T02:49:20.011Z,2.70
2017-11-18T02:49:54.436Z,4.10
2017-11-18T02:50:28.874Z,3.17
2017-11-18T02:51:03.289Z,2.90
2017-11-18T02:51:37.724Z,2.95
2017-11-18T02:52:12.494Z,3.50
2017-11-18T02:52:46.956Z,3.80
2017-11-18T02:53:21.382Z,2.55
2017-11-18T02:53:55.813Z,2.72
2017-11-18T02:54:30.292Z,2.65
2017-11-18T02:55:04.741Z,3.50
2017-11-18T02:55:39.161Z,2.60
2017-11-18T02:56:13.914Z,2.90
2017-11-18T02:56:48.338Z,2.67
2017-11-18T02:57:22.769Z,3.45
2017-11-18T02:57:57.277Z,3.37
2017-11-18T02:58:31.703Z,2.75
2017-11-18T02:59:06.130Z,3.28
2017-11-18T02:59:40.560Z,3.17
2017-11-18T03:00:14.802Z,2.90
2017-11-18T03:00:49.561Z,3.08
2017-11-18T03:01:24.336Z,3.00
2017-11-18T03:01:58.761Z,3.50
2017-11-18T03:02:33.503Z,3.83
2017-11-18T03:03:07.962Z,3.35
2017-11-18T03:03:42.407Z,3.60
2017-11-18T03:04:17.158Z,3.37
2017-11-18T03:04:51.591Z,3.37
2017-11-18T03:05:26.023Z,2.70
2017-11-18T03:06:00.822Z,3.65
2017-11-18T03:06:35.587Z,3.50
2017-11-18T03:07:10.344Z,3.60
2017-11-18T03:07:45.137Z,2.95
2017-11-18T03:08:19.928Z,3.05
2017-11-18T03:08:54.384Z,3.05
2017-11-18T03:09:29.137Z,3.33
2017-11-18T03:10:03.545Z,3.42
2017-11-18T03:10:38.381Z,3.12
2017-11-18T03:11:13.147Z,3.62
2017-11-18T03:11:47.889Z,3.37
2017-11-18T03:12:22.316Z,3.03
2017-11-18T03:12:56.776Z,2.85
2017-11-18T03:13:31.659Z,3.22
2017-11-18T03:14:06.478Z,3.70
2017-11-18T03:14:41.227Z,2.75
2017-11-18T03:15:15.974Z,2.75
2017-11-18T03:15:50.502Z,2.85
2017-11-18T03:16:25.607Z,3.15
2017-11-18T03:17:00.361Z,3.65
2017-11-18T03:17:35.126Z,2.95
2017-11-18T03:18:09.880Z,3.17
2017-11-18T03:18:44.326Z,3.05
2017-11-18T03:19:19.099Z,2.30
2017-11-18T03:19:53.505Z,3.10
2017-11-18T03:20:28.668Z,3.00
2017-11-18T03:21:03.429Z,3.33
2017-11-18T03:21:38.193Z,3.12
2017-11-18T03:22:12.616Z,3.30
2017-11-18T03:22:47.368Z,3.60
2017-11-18T03:23:22.129Z,2.87
2017-11-18T03:23:56.569Z,3.22
2017-11-18T03:24:31.331Z,3.30
2017-11-18T03:25:06.078Z,2.95
2017-11-18T03:25:40.841Z,3.20
2017-11-18T03:26:15.596Z,3.17
2017-11-18T03:26:50.626Z,3.08
2017-11-18T03:27:25.369Z,2.55
2017-11-18T03:28:00.117Z,2.92
2017-11-18T03:28:34.863Z,3.35
2017-11-18T03:29:09.323Z,3.10
2017-11-18T03:29:44.088Z,2.75
2017-11-18T03:30:18.843Z,3.10
2017-11-18T03:30:53.599Z,2.90
2017-11-18T03:31:28.401Z,2.45
2017-11-18T03:32:03.155Z,2.95
2017-11-18T03:32:37.934Z,3.55
2017-11-18T03:33:13.269Z,2.97
2017-11-18T03:33:47.702Z,3.60
2017-11-18T03:34:22.149Z,2.78
2017-11-18T03:34:56.896Z,3.00
2017-11-18T03:35:31.650Z,3.28
2017-11-18T03:36:06.417Z,3.17
2017-11-18T03:36:40.838Z,3.12
2017-11-18T03:37:15.261Z,3.20
2017-11-18T03:37:50.018Z,2.30
2017-11-18T03:38:24.764Z,2.58
2017-11-18T03:38:59.530Z,2.75
2017-11-18T03:39:34.303Z,3.10
2017-11-18T03:40:09.058Z,3.17
2017-11-18T03:40:43.826Z,2.75
2017-11-18T03:41:18.587Z,3.00
2017-11-18T03:41:53.349Z,2.67
2017-11-18T03:42:28.133Z,3.78
2017-11-18T03:43:02.549Z,2.97
2017-11-18T03:43:37.320Z,2.60
2017-11-18T03:44:12.087Z,2.70
2017-11-18T03:44:46.861Z,2.90
2017-11-18T03:45:21.622Z,2.95
2017-11-18T03:45:56.376Z,2.97
2017-11-18T03:46:31.128Z,2.97
2017-11-18T03:47:05.546Z,2.70
2017-11-18T03:47:39.977Z,2.83
2017-11-18T03:48:14.754Z,3.45
2017-11-18T03:48:49.511Z,2.75
2017-11-18T03:49:24.271Z,3.00
2017-11-18T03:49:59.189Z,3.33
2017-11-18T03:50:33.941Z,2.65
2017-11-18T03:51:08.425Z,3.47
2017-11-18T03:51:43.182Z,2.95
2017-11-18T03:52:18.455Z,2.80
2017-11-18T03:52:52.899Z,3.10
2017-11-18T03:53:27.322Z,2.70
2017-11-18T03:54:02.082Z,2.58
2017-11-18T03:54:36.842Z,2.78
2017-11-18T03:55:11.307Z,3.20
2017-11-18T03:55:46.077Z,3.08
2017-11-18T03:56:20.832Z,3.20
2017-11-18T03:56:55.581Z,2.80
2017-11-18T03:57:30.379Z,2.90
2017-11-18T03:58:04.792Z,2.90
2017-11-18T03:58:39.569Z,3.08
2017-11-18T03:59:14.328Z,3.00
2017-11-18T03:59:48.780Z,2.78
2017-11-18T04:00:23.214Z,3.28
2017-11-18T04:00:57.630Z,2.70
2017-11-18T04:01:32.053Z,2.50
2017-11-18T04:02:06.833Z,3.85
2017-11-18T04:02:41.586Z,2.60
2017-11-18T04:03:16.359Z,2.80
2017-11-18T04:03:51.116Z,2.92
2017-11-18T04:04:25.876Z,2.85
2017-11-18T04:05:00.626Z,2.70
2017-11-18T04:05:35.420Z,3.30
2017-11-18T04:06:10.181Z,2.78
2017-11-18T04:06:44.935Z,2.95
2017-11-18T04:07:19.696Z,2.85
2017-11-18T04:07:54.453Z,3.65
2017-11-18T04:08:29.202Z,2.90
2017-11-18T04:09:03.447Z,3.00
2017-11-18T04:09:37.865Z,2.22
2017-11-18T04:10:12.362Z,2.92
2017-11-18T04:10:47.138Z,3.00
2017-11-18T04:11:21.554Z,3.00
2017-11-18T04:11:56.321Z,3.00
2017-11-18T04:12:30.744Z,2.55
2017-11-18T04:13:05.172Z,2.90
2017-11-18T04:13:39.923Z,2.20
2017-11-18T04:14:14.685Z,3.10
2017-11-18T04:14:49.106Z,2.90
2017-11-18T04:15:23.861Z,2.62
2017-11-18T04:15:58.329Z,2.75
2017-11-18T04:16:32.792Z,2.40
2017-11-18T04:17:07.552Z,2.90
2017-11-18T04:17:42.322Z,3.45
2017-11-18T04:18:17.083Z,2.70
2017-11-18T04:18:51.843Z,2.83
2017-11-18T04:19:26.614Z,2.85
2017-11-18T04:20:01.363Z,2.85
2017-11-18T04:20:36.137Z,3.20
2017-11-18T04:21:10.588Z,3.35
2017-11-18T04:21:45.363Z,2.80
2017-11-18T04:22:20.136Z,2.40
2017-11-18T04:22:54.934Z,2.67
2017-11-18T04:23:29.854Z,2.60
2017-11-18T04:24:04.635Z,2.58
2017-11-18T04:24:39.388Z,2.90
2017-11-18T04:25:14.155Z,3.00
2017-11-18T04:25:48.910Z,3.85
2017-11-18T04:26:24.426Z,2.83
2017-11-18T04:26:59.201Z,2.83
2017-11-18T04:27:34.677Z,2.47
2017-11-18T04:28:09.094Z,2.50
2017-11-18T04:28:43.513Z,2.75
2017-11-18T04:29:18.263Z,2.65
2017-11-18T04:29:53.034Z,2.67
2017-11-18T04:30:27.451Z,2.47
2017-11-18T04:31:01.890Z,2.92
2017-11-18T04:31:36.681Z,2.45
2017-11-18T04:32:11.424Z,2.65
2017-11-18T04:32:45.848Z,3.10
2017-11-18T04:33:20.605Z,3.35
2017-11-18T04:33:55.024Z,3.65
2017-11-18T04:34:29.783Z,2.70
2017-11-18T04:35:04.202Z,2.60
2017-11-18T04:35:38.963Z,2.65
2017-11-18T04:36:13.727Z,3.50
2017-11-18T04:36:48.515Z,2.55
2017-11-18T04:37:23.272Z,2.62
2017-11-18T04:37:58.014Z,2.50
2017-11-18T04:38:32.779Z,2.92
2017-11-18T04:39:07.201Z,2.85
2017-11-18T04:39:41.954Z,2.85
2017-11-18T04:40:16.725Z,3.50
2017-11-18T04:40:51.486Z,2.60
2017-11-18T04:41:26.252Z,3.33
2017-11-18T04:42:00.689Z,2.60
2017-11-18T04:42:35.453Z,2.80
2017-11-18T04:43:10.198Z,3.65
2017-11-18T04:43:44.955Z,2.92
2017-11-18T04:44:19.413Z,3.50
2017-11-18T04:44:54.178Z,2.30
2017-11-18T04:45:28.954Z,2.80
2017-11-18T04:46:03.386Z,2.83
2017-11-18T04:46:38.138Z,2.70
2017-11-18T04:47:12.919Z,3.08
2017-11-18T04:47:47.689Z,2.92
2017-11-18T04:48:22.450Z,2.20
2017-11-18T04:48:57.200Z,2.70
2017-11-18T04:49:31.962Z,2.92
2017-11-18T04:50:06.404Z,2.70
2017-11-18T04:50:41.161Z,3.28
2017-11-18T04:51:15.910Z,2.67
2017-11-18T04:51:50.662Z,2.75
2017-11-18T04:52:25.437Z,2.70
2017-11-18T04:53:00.207Z,2.97
2017-11-18T04:53:34.636Z,3.20
2017-11-18T04:54:09.396Z,2.55
2017-11-18T04:54:44.155Z,2.70
2017-11-18T04:55:18.911Z,2.70
2017-11-18T04:55:53.688Z,2.97
2017-11-18T04:56:28.446Z,3.20
2017-11-18T04:57:03.197Z,2.62
2017-11-18T04:57:37.976Z,2.53
2017-11-18T04:58:12.755Z,2.97
2017-11-18T04:58:47.169Z,2.95
2017-11-18T04:59:21.921Z,2.62
2017-11-18T04:59:56.687Z,3.30
2017-11-18T05:00:31.434Z,3.12
2017-11-18T05:01:05.860Z,3.35
2017-11-18T05:01:40.618Z,2.97
2017-11-18T05:02:15.375Z,2.70
2017-11-18T05:02:50.139Z,3.42
2017-11-18T05:03:24.906Z,3.45
2017-11-18T05:03:59.682Z,3.35
2017-11-18T05:04:34.449Z,2.58
2017-11-18T05:05:09.216Z,3.20
2017-11-18T05:05:43.980Z,3.58
2017-11-18T05:06:18.744Z,3.80
2017-11-18T05:06:53.168Z,3.20
2017-11-18T05:07:27.918Z,3.10
2017-11-18T05:08:02.697Z,3.58
2017-11-18T05:08:37.122Z,3.05
2017-11-18T05:09:12.372Z,3.78
2017-11-18T05:09:46.810Z,2.85
2017-11-18T05:10:21.231Z,3.50
2017-11-18T05:10:55.657Z,3.17
2017-11-18T05:11:30.406Z,3.00
2017-11-18T05:12:05.154Z,3.53
2017-11-18T05:12:39.921Z,3.72
2017-11-18T05:13:14.704Z,2.97
2017-11-18T05:13:49.472Z,3.40
2017-11-18T05:14:23.905Z,3.20
2017-11-18T05:14:58.653Z,3.53
2017-11-18T05:15:33.097Z,3.17
2017-11-18T05:16:07.498Z,2.87
2017-11-18T05:16:42.357Z,3.30
2017-11-18T05:17:17.291Z,3.40
2017-11-18T05:17:52.040Z,3.28
2017-11-18T05:18:26.847Z,4.35
2017-11-18T05:19:01.627Z,3.10
2017-11-18T05:19:36.051Z,3.50
2017-11-18T05:20:10.497Z,3.20
2017-11-18T05:20:45.271Z,3.78
2017-11-18T05:21:19.683Z,3.58
2017-11-18T05:21:54.119Z,3.42
2017-11-18T05:22:28.888Z,3.58
2017-11-18T05:23:03.652Z,3.17
2017-11-18T05:23:38.107Z,3.15
2017-11-18T05:24:12.870Z,3.30
2017-11-18T05:24:47.632Z,2.95
2017-11-18T05:25:22.388Z,3.33
2017-11-18T05:25:56.793Z,3.83
2017-11-18T05:26:31.219Z,2.70
2017-11-18T05:27:05.984Z,3.28
2017-11-18T05:27:40.758Z,2.87
2017-11-18T05:28:15.515Z,3.30
2017-11-18T05:28:50.309Z,3.28
2017-11-18T05:29:25.055Z,3.80
2017-11-18T05:29:59.813Z,2.67
2017-11-18T05:30:34.245Z,3.30
2017-11-18T05:31:09.002Z,3.40
2017-11-18T05:31:43.769Z,3.42
2017-11-18T05:32:18.202Z,3.10
2017-11-18T05:32:52.985Z,3.47
2017-11-18T05:33:27.425Z,3.00
2017-11-18T05:34:02.240Z,3.30
2017-11-18T05:34:36.993Z,2.85
2017-11-18T05:35:11.726Z,3.17
2017-11-18T05:35:46.168Z,3.40
2017-11-18T05:36:20.590Z,3.40
2017-11-18T05:36:54.999Z,3.53
2017-11-18T05:37:29.763Z,3.05
2017-11-18T05:38:04.205Z,3.28
2017-11-18T05:38:38.633Z,3.65
2017-11-18T05:39:13.446Z,3.40
2017-11-18T05:39:48.190Z,3.30
2017-11-18T05:40:22.614Z,3.20
2017-11-18T05:40:57.378Z,4.62
2017-11-18T05:41:32.129Z,3.37
2017-11-18T05:42:06.551Z,3.95
2017-11-18T05:42:41.332Z,3.37
2017-11-18T05:43:16.094Z,3.33
2017-11-18T05:43:50.858Z,3.35
2017-11-18T05:44:25.639Z,2.62
2017-11-18T05:45:00.418Z,3.12
2017-11-18T05:45:35.177Z,3.62
2017-11-18T05:46:09.960Z,3.42
2017-11-18T05:46:44.722Z,3.67
2017-11-18T05:47:19.495Z,3.25
2017-11-18T05:47:54.238Z,4.10
2017-11-18T05:48:29.007Z,4.45
2017-11-18T05:49:03.778Z,3.45
2017-11-18T05:49:38.557Z,3.50
2017-11-18T05:50:13.323Z,3.80
2017-11-18T05:50:48.084Z,4.18
2017-11-18T05:51:22.847Z,3.67
2017-11-18T05:51:57.614Z,3.40
2017-11-18T05:52:32.373Z,3.85
2017-11-18T05:53:07.138Z,3.67
2017-11-18T05:53:41.892Z,4.03
2017-11-18T05:54:16.658Z,3.67
2017-11-18T05:54:51.591Z,3.85
2017-11-18T05:55:26.353Z,3.80
2017-11-18T05:56:01.121Z,3.85
2017-11-18T05:56:35.935Z,4.07
2017-11-18T05:57:11.442Z,4.18
2017-11-18T05:57:46.198Z,3.15
2017-11-18T05:58:21.104Z,4.20
2017-11-18T05:58:55.866Z,3.17
2017-11-18T05:59:30.630Z,4.22
2017-11-18T06:00:05.087Z,3.60
2017-11-18T06:00:39.533Z,3.95
2017-11-18T06:01:13.955Z,3.80
2017-11-18T06:01:48.379Z,4.00
2017-11-18T06:02:23.141Z,4.40
2017-11-18T06:02:57.581Z,3.90
2017-11-18T06:03:31.997Z,3.15
2017-11-18T06:04:06.460Z,4.35
2017-11-18T06:04:41.210Z,4.40
2017-11-18T06:05:15.993Z,4.40
2017-11-18T06:05:50.764Z,3.50
2017-11-18T06:06:25.193Z,4.25
2017-11-18T06:06:59.638Z,4.10
2017-11-18T06:07:34.495Z,4.15
2017-11-18T06:08:09.261Z,3.92
2017-11-18T06:08:44.005Z,3.60
2017-11-18T06:09:18.767Z,4.18
2017-11-18T06:09:53.526Z,4.15
2017-11-18T06:10:28.314Z,4.35
2017-11-18T06:11:03.065Z,3.85
2017-11-18T06:11:37.829Z,4.70
2017-11-18T06:12:12.587Z,4.40
2017-11-18T06:12:47.356Z,3.50
2017-11-18T06:13:22.105Z,4.47
2017-11-18T06:13:56.874Z,4.30
2017-11-18T06:14:31.644Z,3.85
2017-11-18T06:15:06.061Z,3.80
2017-11-18T06:15:40.843Z,4.50
2017-11-18T06:16:15.597Z,4.12
2017-11-18T06:16:50.346Z,4.35
2017-11-18T06:17:25.094Z,3.92
2017-11-18T06:17:59.843Z,4.43
2017-11-18T06:18:34.605Z,4.45
2017-11-18T06:19:09.364Z,4.85
2017-11-18T06:19:44.131Z,3.80
2017-11-18T06:20:18.894Z,4.60
2017-11-18T06:20:53.671Z,4.00
2017-11-18T06:21:28.449Z,4.53
2017-11-18T06:22:03.204Z,4.28
2017-11-18T06:22:37.982Z,3.90
2017-11-18T06:23:12.744Z,4.03
2017-11-18T06:23:47.297Z,4.87
2017-11-18T06:24:22.887Z,4.10
2017-11-18T06:24:57.652Z,3.50
2017-11-18T06:25:32.405Z,4.95
2017-11-18T06:26:07.209Z,4.28
2017-11-18T06:26:42.011Z,4.05
2017-11-18T06:27:16.793Z,4.20
2017-11-18T06:27:51.574Z,4.20
2017-11-18T06:28:26.319Z,4.57
2017-11-18T06:29:01.088Z,4.25
2017-11-18T06:29:35.848Z,4.28
2017-11-18T06:30:10.622Z,4.18
2017-11-18T06:30:45.383Z,5.05
2017-11-18T06:31:20.261Z,4.57
2017-11-18T06:31:55.065Z,4.30
2017-11-18T06:32:29.895Z,4.82
2017-11-18T06:33:04.706Z,3.90
2017-11-18T06:33:39.493Z,4.47
2017-11-18T06:34:14.280Z,4.47
2017-11-18T06:34:49.099Z,4.80
2017-11-18T06:35:23.865Z,4.45
2017-11-18T06:35:58.651Z,4.10
2017-11-18T06:36:33.442Z,4.93
2017-11-18T06:37:08.216Z,4.47
2017-11-18T06:37:43.024Z,4.55
2017-11-18T06:38:17.883Z,4.40
2017-11-18T06:38:52.709Z,4.80
2017-11-18T06:39:27.488Z,4.60
2017-11-18T06:40:02.267Z,5.32
2017-11-18T06:40:37.060Z,4.80
2017-11-18T06:41:11.855Z,4.60
2017-11-18T06:41:46.792Z,4.85
2017-11-18T06:42:21.577Z,4.95
2017-11-18T06:42:56.366Z,4.62
2017-11-18T06:43:31.142Z,4.87
2017-11-18T06:44:05.902Z,5.00
2017-11-18T06:44:40.696Z,4.62
2017-11-18T06:45:15.474Z,5.15
2017-11-18T06:45:50.262Z,5.47
2017-11-18T06:46:25.107Z,4.70
2017-11-18T06:46:59.907Z,5.07
2017-11-18T06:47:35.495Z,4.70
2017-11-18T06:48:10.276Z,4.28
2017-11-18T06:48:45.073Z,4.37
2017-11-18T06:49:19.904Z,4.80
2017-11-18T06:49:54.683Z,5.20
2017-11-18T06:50:29.461Z,4.55
2017-11-18T06:51:04.039Z,4.30
2017-11-18T06:51:38.892Z,4.62
2017-11-18T06:52:13.693Z,4.25
2017-11-18T06:52:48.466Z,4.93
2017-11-18T06:53:23.269Z,4.57
2017-11-18T06:53:58.040Z,4.32
2017-11-18T06:54:32.819Z,4.20
2017-11-18T06:55:07.588Z,5.20
2017-11-18T06:55:42.369Z,4.85
2017-11-18T06:56:17.172Z,3.85
2017-11-18T06:56:51.984Z,4.53
2017-11-18T06:57:26.775Z,4.60
2017-11-18T06:58:01.550Z,4.20
2017-11-18T06:58:36.790Z,4.32
2017-11-18T06:59:11.544Z,4.72
2017-11-18T06:59:46.317Z,4.75
2017-11-18T07:00:21.107Z,4.97
2017-11-18T07:00:56.138Z,4.45
2017-11-18T07:01:30.902Z,4.80
2017-11-18T07:02:05.652Z,4.43
2017-11-18T07:02:40.496Z,4.75
2017-11-18T07:03:15.266Z,4.68
2017-11-18T07:03:50.034Z,4.53
2017-11-18T07:04:24.794Z,5.18
2017-11-18T07:04:59.591Z,4.32
2017-11-18T07:05:34.341Z,4.40
2017-11-18T07:06:09.107Z,3.87
2017-11-18T07:06:43.860Z,4.37
2017-11-18T07:07:18.608Z,4.43
2017-11-18T07:07:53.383Z,4.20
2017-11-18T07:08:28.159Z,4.53
2017-11-18T07:09:02.741Z,4.18
2017-11-18T07:09:37.513Z,5.03
2017-11-18T07:10:12.347Z,4.90
2017-11-18T07:10:47.156Z,4.55
2017-11-18T07:11:22.011Z,5.53
2017-11-18T07:11:56.772Z,4.03
2017-11-18T07:12:31.528Z,4.85
2017-11-18T07:13:06.326Z,4.78
2017-11-18T07:13:41.077Z,5.12
2017-11-18T07:14:15.847Z,4.87
2017-11-18T07:14:50.596Z,4.95
2017-11-18T07:15:25.366Z,4.80
2017-11-18T07:16:00.131Z,4.95
2017-11-18T07:16:34.896Z,4.35
2017-11-18T07:17:09.645Z,4.70
2017-11-18T07:17:44.423Z,4.85
2017-11-18T07:18:19.218Z,4.22
2017-11-18T07:18:53.981Z,4.53
2017-11-18T07:19:28.742Z,4.32
2017-11-18T07:20:03.489Z,5.05
2017-11-18T07:20:38.256Z,5.35
2017-11-18T07:21:13.027Z,4.72
2017-11-18T07:21:47.794Z,4.65
2017-11-18T07:22:22.544Z,5.25
2017-11-18T07:22:57.302Z,3.75
2017-11-18T07:23:32.095Z,4.65
2017-11-18T07:24:07.338Z,4.10
2017-11-18T07:24:42.102Z,4.80
2017-11-18T07:25:16.850Z,4.43
2017-11-18T07:25:51.600Z,5.28
2017-11-18T07:26:26.360Z,4.70
2017-11-18T07:27:01.129Z,4.40
2017-11-18T07:27:35.909Z,4.50
2017-11-18T07:28:10.678Z,5.53
2017-11-18T07:28:45.457Z,5.97
2017-11-18T07:29:20.222Z,4.45
2017-11-18T07:29:55.010Z,4.22
2017-11-18T07:30:29.771Z,4.65
2017-11-18T07:31:04.526Z,4.78
2017-11-18T07:31:39.331Z,5.32
2017-11-18T07:32:14.094Z,4.75
2017-11-18T07:32:48.872Z,4.85
2017-11-18T07:33:23.657Z,4.90
2017-11-18T07:33:58.444Z,4.62
2017-11-18T07:34:33.198Z,4.43
2017-11-18T07:35:07.960Z,4.15
2017-11-18T07:35:42.739Z,4.07
2017-11-18T07:36:17.526Z,5.12
2017-11-18T07:36:52.278Z,4.47
2017-11-18T07:37:27.030Z,4.05
2017-11-18T07:38:01.782Z,4.87
2017-11-18T07:38:36.531Z,4.97
2017-11-18T07:39:11.317Z,4.85
2017-11-18T07:39:46.063Z,4.45
2017-11-18T07:40:20.824Z,5.05
2017-11-18T07:40:55.588Z,4.55
2017-11-18T07:41:30.377Z,5.05
2017-11-18T07:42:05.148Z,4.80
2017-11-18T07:42:39.911Z,4.57